sensor_id;sensor_type;location;lat;lon;timestamp;pressure;altitude;pressure_sealevel;temperature;humidity
61573;BME280;47465;43.094;12.434;2023-06-14T00:01:53;98152.19;;;16.92;100.00
61573;BME280;47465;43.094;12.434;2023-06-14T00:04:20;98182.75;;;17.04;100.00
61573;BME280;47465;43.094;12.434;2023-06-14T00:06:47;98158.00;;;16.70;100.00
61573;BME280;47465;43.094;12.434;2023-06-14T00:09:16;98145.72;;;16.66;100.00
61573;BME280;47465;43.094;12.434;2023-06-14T00:11:43;98164.91;;;16.74;100.00
61573;BME280;47465;43.094;12.434;2023-06-14T00:14:09;98177.00;;;16.81;100.00
61573;BME280;47465;43.094;12.434;2023-06-14T00:16:36;98183.34;;;16.95;100.00
61573;BME280;47465;43.094;12.434;2023-06-14T00:19:04;98184.78;;;16.86;100.00
61573;BME280;47465;43.094;12.434;2023-06-14T00:21:32;98148.31;;;16.68;100.00
61573;BME280;47465;43.094;12.434;2023-06-14T00:23:58;98173.34;;;16.82;100.00
61573;BME280;47465;43.094;12.434;2023-06-14T00:26:25;98174.25;;;16.83;100.00
61573;BME280;47465;43.094;12.434;2023-06-14T00:28:51;98161.25;;;16.75;100.00
61573;BME280;47465;43.094;12.434;2023-06-14T00:31:17;98149.81;;;16.72;100.00
61573;BME280;47465;43.094;12.434;2023-06-14T00:33:43;98182.50;;;16.94;100.00
61573;BME280;47465;43.094;12.434;2023-06-14T00:36:10;98139.28;;;16.69;100.00
61573;BME280;47465;43.094;12.434;2023-06-14T00:38:37;98160.69;;;16.84;100.00
61573;BME280;47465;43.094;12.434;2023-06-14T00:41:03;98147.91;;;16.74;100.00
61573;BME280;47465;43.094;12.434;2023-06-14T00:43:29;98177.97;;;16.95;100.00
61573;BME280;47465;43.094;12.434;2023-06-14T00:45:56;98161.25;;;16.75;100.00
61573;BME280;47465;43.094;12.434;2023-06-14T00:48:22;98155.94;;;16.90;100.00
61573;BME280;47465;43.094;12.434;2023-06-14T00:50:49;98166.09;;;16.99;100.00
61573;BME280;47465;43.094;12.434;2023-06-14T00:53:16;98145.38;;;17.01;100.00
61573;BME280;47465;43.094;12.434;2023-06-14T00:55:44;98151.41;;;17.04;100.00
61573;BME280;47465;43.094;12.434;2023-06-14T00:58:10;98127.81;;;16.81;100.00
61573;BME280;47465;43.094;12.434;2023-06-14T01:00:36;98139.22;;;16.84;100.00
61573;BME280;47465;43.094;12.434;2023-06-14T01:03:02;98150.84;;;16.85;100.00
61573;BME280;47465;43.094;12.434;2023-06-14T01:05:29;98136.13;;;16.76;100.00
61573;BME280;47465;43.094;12.434;2023-06-14T01:08:08;98124.88;;;16.70;100.00
61573;BME280;47465;43.094;12.434;2023-06-14T01:10:42;98115.91;;;16.71;100.00
61573;BME280;47465;43.094;12.434;2023-06-14T01:13:19;98148.16;;;16.85;100.00
61573;BME280;47465;43.094;12.434;2023-06-14T01:15:46;98158.50;;;16.91;100.00
61573;BME280;47465;43.094;12.434;2023-06-14T01:18:13;98126.16;;;16.64;100.00
61573;BME280;47465;43.094;12.434;2023-06-14T01:20:43;98124.41;;;16.63;100.00
61573;BME280;47465;43.094;12.434;2023-06-14T01:23:12;98131.78;;;16.74;100.00
61573;BME280;47465;43.094;12.434;2023-06-14T01:25:38;98134.06;;;16.81;100.00
61573;BME280;47465;43.094;12.434;2023-06-14T01:28:06;98136.06;;;16.92;100.00
61573;BME280;47465;43.094;12.434;2023-06-14T01:30:41;98109.97;;;16.80;100.00
61573;BME280;47465;43.094;12.434;2023-06-14T01:33:11;98122.53;;;16.94;100.00
61573;BME280;47465;43.094;12.434;2023-06-14T01:35:38;98111.03;;;16.92;100.00
61573;BME280;47465;43.094;12.434;2023-06-14T01:38:05;98136.81;;;17.09;100.00
61573;BME280;47465;43.094;12.434;2023-06-14T01:40:34;98139.09;;;17.15;100.00
61573;BME280;47465;43.094;12.434;2023-06-14T01:43:01;98122.81;;;17.03;100.00
61573;BME280;47465;43.094;12.434;2023-06-14T01:45:28;98126.47;;;17.02;100.00
61573;BME280;47465;43.094;12.434;2023-06-14T01:47:55;98113.59;;;16.93;100.00
61573;BME280;47465;43.094;12.434;2023-06-14T01:50:21;98139.22;;;17.13;100.00
61573;BME280;47465;43.094;12.434;2023-06-14T01:52:47;98115.34;;;16.94;100.00
61573;BME280;47465;43.094;12.434;2023-06-14T01:55:13;98126.00;;;16.96;100.00
61573;BME280;47465;43.094;12.434;2023-06-14T01:57:41;98119.09;;;16.92;100.00
61573;BME280;47465;43.094;12.434;2023-06-14T02:00:08;98126.19;;;16.93;100.00
61573;BME280;47465;43.094;12.434;2023-06-14T02:02:36;98145.75;;;17.09;100.00
61573;BME280;47465;43.094;12.434;2023-06-14T02:05:02;98131.63;;;17.06;100.00
61573;BME280;47465;43.094;12.434;2023-06-14T02:07:28;98116.66;;;17.01;100.00
61573;BME280;47465;43.094;12.434;2023-06-14T02:09:54;98103.06;;;16.90;100.00
61573;BME280;47465;43.094;12.434;2023-06-14T02:12:20;98096.94;;;16.88;100.00
61573;BME280;47465;43.094;12.434;2023-06-14T02:14:48;98128.84;;;17.07;100.00
61573;BME280;47465;43.094;12.434;2023-06-14T02:17:14;98097.69;;;16.90;100.00
61573;BME280;47465;43.094;12.434;2023-06-14T02:19:40;98118.41;;;16.88;100.00
61573;BME280;47465;43.094;12.434;2023-06-14T02:22:07;98125.09;;;16.67;100.00
61573;BME280;47465;43.094;12.434;2023-06-14T02:24:33;98119.25;;;16.60;100.00
61573;BME280;47465;43.094;12.434;2023-06-14T02:26:59;98085.88;;;16.35;100.00
61573;BME280;47465;43.094;12.434;2023-06-14T02:29:25;98092.50;;;16.44;100.00
61573;BME280;47465;43.094;12.434;2023-06-14T02:31:52;98125.41;;;16.76;100.00
61573;BME280;47465;43.094;12.434;2023-06-14T02:34:18;98100.66;;;16.57;100.00
61573;BME280;47465;43.094;12.434;2023-06-14T02:36:46;98087.50;;;16.52;100.00
61573;BME280;47465;43.094;12.434;2023-06-14T02:39:13;98087.50;;;16.52;100.00
61573;BME280;47465;43.094;12.434;2023-06-14T02:41:39;98091.16;;;16.51;100.00
61573;BME280;47465;43.094;12.434;2023-06-14T02:44:07;98099.31;;;16.64;100.00
61573;BME280;47465;43.094;12.434;2023-06-14T02:46:33;98078.00;;;16.61;100.00
61573;BME280;47465;43.094;12.434;2023-06-14T02:49:00;98084.44;;;16.58;100.00
61573;BME280;47465;43.094;12.434;2023-06-14T02:51:26;98074.50;;;16.46;100.00
61573;BME280;47465;43.094;12.434;2023-06-14T02:53:52;98085.69;;;16.53;100.00
61573;BME280;47465;43.094;12.434;2023-06-14T02:56:18;98072.66;;;16.47;100.00
61573;BME280;47465;43.094;12.434;2023-06-14T02:58:45;98076.00;;;16.50;100.00
61573;BME280;47465;43.094;12.434;2023-06-14T03:01:11;98078.41;;;16.55;100.00
61573;BME280;47465;43.094;12.434;2023-06-14T03:03:39;98088.56;;;16.64;100.00
61573;BME280;47465;43.094;12.434;2023-06-14T03:06:07;98094.22;;;16.59;100.00
61573;BME280;47465;43.094;12.434;2023-06-14T03:08:33;98076.78;;;16.38;100.00
61573;BME280;47465;43.094;12.434;2023-06-14T03:11:04;98086.53;;;16.39;100.00
61573;BME280;47465;43.094;12.434;2023-06-14T03:13:31;98078.09;;;16.31;100.00
61573;BME280;47465;43.094;12.434;2023-06-14T03:16:02;98096.34;;;16.40;100.00
61573;BME280;47465;43.094;12.434;2023-06-14T03:18:29;98074.56;;;16.30;100.00
61573;BME280;47465;43.094;12.434;2023-06-14T03:20:56;98075.31;;;16.32;100.00
61573;BME280;47465;43.094;12.434;2023-06-14T03:23:25;98069.19;;;16.30;100.00
61573;BME280;47465;43.094;12.434;2023-06-14T03:25:51;98075.41;;;16.31;100.00
61573;BME280;47465;43.094;12.434;2023-06-14T03:28:17;98096.50;;;16.37;100.00
61573;BME280;47465;43.094;12.434;2023-06-14T03:30:43;98070.16;;;16.29;100.00
61573;BME280;47465;43.094;12.434;2023-06-14T03:33:09;98077.34;;;16.29;100.00
61573;BME280;47465;43.094;12.434;2023-06-14T03:35:36;98075.97;;;16.21;100.00
61573;BME280;47465;43.094;12.434;2023-06-14T03:38:02;98097.56;;;16.34;100.00
61573;BME280;47465;43.094;12.434;2023-06-14T03:40:30;98114.13;;;16.41;100.00
61573;BME280;47465;43.094;12.434;2023-06-14T03:42:57;98099.94;;;16.39;100.00
61573;BME280;47465;43.094;12.434;2023-06-14T03:45:23;98089.59;;;16.33;100.00
61573;BME280;47465;43.094;12.434;2023-06-14T03:47:49;98108.47;;;16.46;100.00
61573;BME280;47465;43.094;12.434;2023-06-14T03:50:17;98090.97;;;16.40;100.00
61573;BME280;47465;43.094;12.434;2023-06-14T03:52:43;98102.94;;;16.49;100.00
61573;BME280;47465;43.094;12.434;2023-06-14T03:55:10;98114.66;;;16.62;100.00
61573;BME280;47465;43.094;12.434;2023-06-14T03:57:39;98145.66;;;16.82;100.00
61573;BME280;47465;43.094;12.434;2023-06-14T04:00:07;98109.75;;;16.69;100.00
61573;BME280;47465;43.094;12.434;2023-06-14T04:02:36;98118.19;;;16.77;100.00
61573;BME280;47465;43.094;12.434;2023-06-14T04:05:03;98108.31;;;16.77;100.00
61573;BME280;47465;43.094;12.434;2023-06-14T04:07:29;98107.28;;;16.80;100.00
61573;BME280;47465;43.094;12.434;2023-06-14T04:09:55;98127.78;;;16.95;100.00
61573;BME280;47465;43.094;12.434;2023-06-14T04:12:21;98113.03;;;16.88;100.00
61573;BME280;47465;43.094;12.434;2023-06-14T04:14:49;98130.09;;;17.01;100.00
61573;BME280;47465;43.094;12.434;2023-06-14T04:17:15;98131.53;;;17.07;100.00
61573;BME280;47465;43.094;12.434;2023-06-14T04:19:41;98116.66;;;17.01;100.00
61573;BME280;47465;43.094;12.434;2023-06-14T04:22:07;98116.28;;;17.08;100.00
61573;BME280;47465;43.094;12.434;2023-06-14T04:24:34;98123.38;;;17.09;100.00
61573;BME280;47465;43.094;12.434;2023-06-14T04:27:00;98122.97;;;17.15;100.00
61573;BME280;47465;43.094;12.434;2023-06-14T04:29:28;98128.25;;;17.16;100.00
61573;BME280;47465;43.094;12.434;2023-06-14T04:31:57;98143.78;;;17.25;100.00
61573;BME280;47465;43.094;12.434;2023-06-14T04:34:27;98125.28;;;17.21;100.00
61573;BME280;47465;43.094;12.434;2023-06-14T04:36:55;98151.16;;;17.36;100.00
61573;BME280;47465;43.094;12.434;2023-06-14T04:39:22;98115.50;;;17.20;100.00
61573;BME280;47465;43.094;12.434;2023-06-14T04:41:48;98141.56;;;17.32;100.00
61573;BME280;47465;43.094;12.434;2023-06-14T04:44:18;98134.78;;;17.27;100.00
61573;BME280;47465;43.094;12.434;2023-06-14T04:46:46;98131.78;;;17.31;100.00
61573;BME280;47465;43.094;12.434;2023-06-14T04:49:13;98140.22;;;17.39;100.00
61573;BME280;47465;43.094;12.434;2023-06-14T04:54:57;98160.06;;;17.51;100.00
61573;BME280;47465;43.094;12.434;2023-06-14T04:57:24;98119.59;;;17.25;100.00
61573;BME280;47465;43.094;12.434;2023-06-14T04:59:51;98139.09;;;17.29;100.00
61573;BME280;47465;43.094;12.434;2023-06-14T05:02:21;98145.81;;;17.22;100.00
61573;BME280;47465;43.094;12.434;2023-06-14T05:04:50;98150.13;;;17.24;100.00
61573;BME280;47465;43.094;12.434;2023-06-14T05:07:16;98119.81;;;17.22;100.00
61573;BME280;47465;43.094;12.434;2023-06-14T05:09:42;98113.84;;;17.32;100.00
61573;BME280;47465;43.094;12.434;2023-06-14T05:12:08;98121.97;;;17.44;100.00
61573;BME280;47465;43.094;12.434;2023-06-14T05:14:35;98129.78;;;17.62;100.00
61573;BME280;47465;43.094;12.434;2023-06-14T05:17:01;98141.13;;;17.80;100.00
61573;BME280;47465;43.094;12.434;2023-06-14T05:19:30;98120.78;;;17.76;100.00
61573;BME280;47465;43.094;12.434;2023-06-14T05:21:58;98115.53;;;17.74;100.00
61573;BME280;47465;43.094;12.434;2023-06-14T05:24:24;98135.28;;;17.88;100.00
61573;BME280;47465;43.094;12.434;2023-06-14T05:26:51;98115.69;;;17.85;100.00
61573;BME280;47465;43.094;12.434;2023-06-14T05:29:17;98134.78;;;18.08;100.00
61573;BME280;47465;43.094;12.434;2023-06-14T05:31:43;98124.69;;;18.12;100.00
61573;BME280;47465;43.094;12.434;2023-06-14T05:34:09;98130.88;;;18.26;100.00
61573;BME280;47465;43.094;12.434;2023-06-14T05:36:35;98114.72;;;18.26;100.00
61573;BME280;47465;43.094;12.434;2023-06-14T05:39:04;98107.06;;;18.33;100.00
61573;BME280;47465;43.094;12.434;2023-06-14T05:41:31;98150.25;;;18.32;100.00
61573;BME280;47465;43.094;12.434;2023-06-14T05:43:57;98120.25;;;18.11;100.00
61573;BME280;47465;43.094;12.434;2023-06-14T05:46:23;98121.81;;;18.27;100.00
61573;BME280;47465;43.094;12.434;2023-06-14T05:48:51;98140.75;;;18.39;100.00
61573;BME280;47465;43.094;12.434;2023-06-14T05:51:17;98114.81;;;18.25;100.00
61573;BME280;47465;43.094;12.434;2023-06-14T05:53:46;98116.34;;;18.42;100.00
61573;BME280;47465;43.094;12.434;2023-06-14T05:56:14;98143.81;;;18.60;100.00
61573;BME280;47465;43.094;12.434;2023-06-14T05:58:40;98131.31;;;18.59;100.00
61573;BME280;47465;43.094;12.434;2023-06-14T06:01:07;98129.28;;;18.37;100.00
61573;BME280;47465;43.094;12.434;2023-06-14T06:03:33;98124.06;;;18.34;100.00
61573;BME280;47465;43.094;12.434;2023-06-14T06:05:59;98138.63;;;18.44;100.00
61573;BME280;47465;43.094;12.434;2023-06-14T06:08:26;98122.16;;;18.36;100.00
61573;BME280;47465;43.094;12.434;2023-06-14T06:10:52;98116.53;;;18.52;100.00
61573;BME280;47465;43.094;12.434;2023-06-14T06:13:20;98113.44;;;18.58;100.00
61573;BME280;47465;43.094;12.434;2023-06-14T06:15:46;98112.47;;;18.59;100.00
61573;BME280;47465;43.094;12.434;2023-06-14T06:18:13;98137.34;;;18.75;100.00
61573;BME280;47465;43.094;12.434;2023-06-14T06:20:39;98109.91;;;18.83;100.00
61573;BME280;47465;43.094;12.434;2023-06-14T06:23:06;98120.31;;;19.13;100.00
61573;BME280;47465;43.094;12.434;2023-06-14T06:25:33;98102.63;;;19.22;100.00
61573;BME280;47465;43.094;12.434;2023-06-14T06:27:59;98118.28;;;19.41;100.00
61573;BME280;47465;43.094;12.434;2023-06-14T06:30:27;98116.03;;;19.47;100.00
61573;BME280;47465;43.094;12.434;2023-06-14T06:32:53;98121.63;;;19.44;100.00
61573;BME280;47465;43.094;12.434;2023-06-14T06:35:19;98125.41;;;19.42;100.00
61573;BME280;47465;43.094;12.434;2023-06-14T06:37:45;98116.72;;;19.49;100.00
61573;BME280;47465;43.094;12.434;2023-06-14T06:40:11;98128.66;;;19.71;100.00
61573;BME280;47465;43.094;12.434;2023-06-14T06:42:38;98122.44;;;19.58;100.00
61573;BME280;47465;43.094;12.434;2023-06-14T06:45:05;98139.84;;;19.78;100.00
61573;BME280;47465;43.094;12.434;2023-06-14T06:47:33;98124.63;;;19.16;100.00
61573;BME280;47465;43.094;12.434;2023-06-14T06:49:59;98130.34;;;19.11;100.00
61573;BME280;47465;43.094;12.434;2023-06-14T06:52:25;98136.28;;;18.78;100.00
61573;BME280;47465;43.094;12.434;2023-06-14T06:54:51;98138.75;;;18.68;100.00
61573;BME280;47465;43.094;12.434;2023-06-14T06:57:20;98175.94;;;19.01;100.00
61573;BME280;47465;43.094;12.434;2023-06-14T06:59:46;98156.22;;;19.14;100.00
61573;BME280;47465;43.094;12.434;2023-06-14T07:02:12;98144.81;;;19.34;100.00
61573;BME280;47465;43.094;12.434;2023-06-14T07:04:40;98141.53;;;19.55;100.00
61573;BME280;47465;43.094;12.434;2023-06-14T07:07:06;98142.19;;;19.58;100.00
61573;BME280;47465;43.094;12.434;2023-06-14T07:09:35;98140.34;;;19.72;100.00
61573;BME280;47465;43.094;12.434;2023-06-14T07:12:01;98148.78;;;19.91;100.00
61573;BME280;47465;43.094;12.434;2023-06-14T07:14:27;98152.66;;;20.11;100.00
61573;BME280;47465;43.094;12.434;2023-06-14T07:16:55;98151.13;;;19.96;100.00
61573;BME280;47465;43.094;12.434;2023-06-14T07:19:21;98153.75;;;20.08;100.00
61573;BME280;47465;43.094;12.434;2023-06-14T07:21:49;98177.56;;;20.39;100.00
61573;BME280;47465;43.094;12.434;2023-06-14T07:24:15;98158.84;;;20.60;100.00
61573;BME280;47465;43.094;12.434;2023-06-14T07:26:41;98152.38;;;20.74;100.00
61573;BME280;47465;43.094;12.434;2023-06-14T07:29:07;98153.34;;;20.84;100.00
61573;BME280;47465;43.094;12.434;2023-06-14T07:31:34;98155.34;;;21.04;100.00
61573;BME280;47465;43.094;12.434;2023-06-14T07:34:00;98172.81;;;21.34;100.00
61573;BME280;47465;43.094;12.434;2023-06-14T07:36:27;98158.06;;;21.49;100.00
61573;BME280;47465;43.094;12.434;2023-06-14T07:38:56;98191.03;;;21.98;100.00
61573;BME280;47465;43.094;12.434;2023-06-14T07:41:22;98153.25;;;22.08;100.00
61573;BME280;47465;43.094;12.434;2023-06-14T07:43:48;98172.13;;;22.30;100.00
61573;BME280;47465;43.094;12.434;2023-06-14T07:46:15;98141.00;;;22.46;100.00
61573;BME280;47465;43.094;12.434;2023-06-14T07:48:41;98162.66;;;22.88;100.00
61573;BME280;47465;43.094;12.434;2023-06-14T07:51:07;98155.44;;;22.98;100.00
61573;BME280;47465;43.094;12.434;2023-06-14T07:53:33;98168.56;;;22.93;100.00
61573;BME280;47465;43.094;12.434;2023-06-14T07:56:01;98145.31;;;22.69;100.00
61573;BME280;47465;43.094;12.434;2023-06-14T07:58:28;98154.97;;;22.62;100.00
61573;BME280;47465;43.094;12.434;2023-06-14T08:00:54;98151.28;;;21.99;100.00
61573;BME280;47465;43.094;12.434;2023-06-14T08:03:20;98165.41;;;21.70;100.00
61573;BME280;47465;43.094;12.434;2023-06-14T08:05:48;98156.56;;;21.57;100.00
61573;BME280;47465;43.094;12.434;2023-06-14T08:08:14;98180.28;;;21.30;100.00
61573;BME280;47465;43.094;12.434;2023-06-14T08:10:40;98166.91;;;21.18;100.00
61573;BME280;47465;43.094;12.434;2023-06-14T08:13:08;98163.25;;;22.28;100.00
61573;BME280;47465;43.094;12.434;2023-06-14T08:15:35;98161.56;;;22.27;100.00
61573;BME280;47465;43.094;12.434;2023-06-14T08:18:03;98160.38;;;22.62;100.00
61573;BME280;47465;43.094;12.434;2023-06-14T08:20:29;98177.66;;;22.29;100.00
61573;BME280;47465;43.094;12.434;2023-06-14T08:22:57;98162.72;;;21.59;100.00
61573;BME280;47465;43.094;12.434;2023-06-14T08:25:24;98165.91;;;21.19;100.00
61573;BME280;47465;43.094;12.434;2023-06-14T08:27:50;98165.31;;;21.26;100.00
61573;BME280;47465;43.094;12.434;2023-06-14T08:30:18;98156.78;;;21.76;100.00
61573;BME280;47465;43.094;12.434;2023-06-14T08:32:44;98166.00;;;22.17;100.00
61573;BME280;47465;43.094;12.434;2023-06-14T08:35:11;98153.44;;;21.72;100.00
61573;BME280;47465;43.094;12.434;2023-06-14T08:37:41;98153.06;;;21.88;100.00
61573;BME280;47465;43.094;12.434;2023-06-14T08:40:17;98156.28;;;21.82;100.00
61573;BME280;47465;43.094;12.434;2023-06-14T08:42:45;98162.09;;;21.99;100.00
61573;BME280;47465;43.094;12.434;2023-06-14T08:45:14;98171.19;;;21.65;100.00
61573;BME280;47465;43.094;12.434;2023-06-14T08:47:42;98159.25;;;21.68;100.00
61573;BME280;47465;43.094;12.434;2023-06-14T08:50:11;98172.28;;;20.84;100.00
61573;BME280;47465;43.094;12.434;2023-06-14T08:52:38;98168.38;;;20.99;100.00
61573;BME280;47465;43.094;12.434;2023-06-14T08:55:11;98186.06;;;21.37;100.00
61573;BME280;47465;43.094;12.434;2023-06-14T08:57:39;98172.63;;;21.81;100.00
61573;BME280;47465;43.094;12.434;2023-06-14T09:00:08;98156.16;;;22.27;100.00
61573;BME280;47465;43.094;12.434;2023-06-14T09:02:38;98159.72;;;22.17;100.00
61573;BME280;47465;43.094;12.434;2023-06-14T09:05:10;98157.31;;;22.76;100.00
61573;BME280;47465;43.094;12.434;2023-06-14T09:07:39;98155.75;;;23.26;100.00
61573;BME280;47465;43.094;12.434;2023-06-14T09:10:08;98152.22;;;23.85;100.00
61573;BME280;47465;43.094;12.434;2023-06-14T09:12:37;98150.41;;;23.95;100.00
61573;BME280;47465;43.094;12.434;2023-06-14T09:15:04;98151.28;;;24.25;100.00
61573;BME280;47465;43.094;12.434;2023-06-14T09:17:32;98145.22;;;24.90;93.58
61573;BME280;47465;43.094;12.434;2023-06-14T09:20:00;98173.72;;;25.33;92.00
61573;BME280;47465;43.094;12.434;2023-06-14T09:22:29;98160.69;;;24.70;94.82
61573;BME280;47465;43.094;12.434;2023-06-14T09:24:55;98157.56;;;24.06;100.00
61573;BME280;47465;43.094;12.434;2023-06-14T09:27:21;98144.69;;;24.67;97.26
61573;BME280;47465;43.094;12.434;2023-06-14T09:33:08;98133.84;;;25.69;85.20
61573;BME280;47465;43.094;12.434;2023-06-14T09:35:34;98144.41;;;24.60;92.11
61573;BME280;47465;43.094;12.434;2023-06-14T09:38:01;98136.53;;;23.48;95.20
61573;BME280;47465;43.094;12.434;2023-06-14T09:40:28;98128.25;;;24.68;93.07
61573;BME280;47465;43.094;12.434;2023-06-14T09:42:54;98143.34;;;25.37;88.08
61573;BME280;47465;43.094;12.434;2023-06-14T09:45:23;98121.84;;;25.44;88.94
61573;BME280;47465;43.094;12.434;2023-06-14T09:47:50;98155.78;;;25.95;88.98
61573;BME280;47465;43.094;12.434;2023-06-14T09:50:16;98129.09;;;25.71;85.24
61573;BME280;47465;43.094;12.434;2023-06-14T09:52:43;98144.03;;;26.13;83.23
61573;BME280;47465;43.094;12.434;2023-06-14T09:55:17;98145.00;;;26.39;82.56
61573;BME280;47465;43.094;12.434;2023-06-14T09:57:45;98121.75;;;26.53;78.34
61573;BME280;47465;43.094;12.434;2023-06-14T10:00:15;98121.25;;;26.76;77.07
61573;BME280;47465;43.094;12.434;2023-06-14T10:02:42;98144.38;;;26.90;76.60
61573;BME280;47465;43.094;12.434;2023-06-14T10:05:15;98099.63;;;26.82;77.39
61573;BME280;47465;43.094;12.434;2023-06-14T10:07:44;98130.00;;;26.43;78.83
61573;BME280;47465;43.094;12.434;2023-06-14T10:10:15;98097.59;;;25.87;82.92
61573;BME280;47465;43.094;12.434;2023-06-14T10:12:41;98089.81;;;25.28;88.35
61573;BME280;47465;43.094;12.434;2023-06-14T10:15:09;98086.50;;;25.34;87.78
61573;BME280;47465;43.094;12.434;2023-06-14T10:17:42;98108.63;;;25.95;79.58
61573;BME280;47465;43.094;12.434;2023-06-14T10:20:23;98092.81;;;26.16;84.72
61573;BME280;47465;43.094;12.434;2023-06-14T10:22:58;98095.59;;;26.42;85.57
61573;BME280;47465;43.094;12.434;2023-06-14T10:25:31;98095.22;;;26.19;79.05
61573;BME280;47465;43.094;12.434;2023-06-14T10:28:17;98078.09;;;25.91;81.39
61573;BME280;47465;43.094;12.434;2023-06-14T10:31:07;98110.78;;;25.91;84.08
61573;BME280;47465;43.094;12.434;2023-06-14T10:33:34;98096.13;;;25.29;84.79
61573;BME280;47465;43.094;12.434;2023-06-14T10:36:24;98103.59;;;24.70;90.04
61573;BME280;47465;43.094;12.434;2023-06-14T10:39:03;98089.16;;;24.69;85.22
61573;BME280;47465;43.094;12.434;2023-06-14T10:41:34;98097.09;;;24.33;88.62
61573;BME280;47465;43.094;12.434;2023-06-14T10:47:24;98108.59;;;23.57;94.05
61573;BME280;47465;43.094;12.434;2023-06-14T10:49:52;98079.75;;;23.16;95.72
61573;BME280;47465;43.094;12.434;2023-06-14T10:52:22;98078.19;;;23.13;97.57
61573;BME280;47465;43.094;12.434;2023-06-14T10:55:10;98087.66;;;23.29;97.31
61573;BME280;47465;43.094;12.434;2023-06-14T10:57:41;98119.47;;;23.27;96.18
61573;BME280;47465;43.094;12.434;2023-06-14T11:00:09;98091.19;;;23.20;95.46
61573;BME280;47465;43.094;12.434;2023-06-14T11:03:17;98120.84;;;23.52;96.32
61573;BME280;47465;43.094;12.434;2023-06-14T11:05:50;98092.53;;;23.35;99.06
61573;BME280;47465;43.094;12.434;2023-06-14T11:11:21;98093.31;;;23.06;100.00
61573;BME280;47465;43.094;12.434;2023-06-14T11:13:51;98101.34;;;22.96;100.00
61573;BME280;47465;43.094;12.434;2023-06-14T11:16:18;98102.47;;;22.63;100.00
61573;BME280;47465;43.094;12.434;2023-06-14T11:18:45;98132.34;;;22.73;100.00
61573;BME280;47465;43.094;12.434;2023-06-14T11:21:14;98090.53;;;22.45;100.00
61573;BME280;47465;43.094;12.434;2023-06-14T11:23:41;98082.94;;;22.39;100.00
61573;BME280;47465;43.094;12.434;2023-06-14T11:26:07;98097.53;;;22.26;100.00
61573;BME280;47465;43.094;12.434;2023-06-14T11:28:37;98107.88;;;22.21;100.00
61573;BME280;47465;43.094;12.434;2023-06-14T11:31:05;98100.56;;;22.01;100.00
61573;BME280;47465;43.094;12.434;2023-06-14T11:33:31;98120.03;;;21.94;100.00
61573;BME280;47465;43.094;12.434;2023-06-14T11:35:56;98124.13;;;21.89;100.00
61573;BME280;47465;43.094;12.434;2023-06-14T11:38:24;98093.56;;;21.66;100.00
61573;BME280;47465;43.094;12.434;2023-06-14T11:40:50;98084.88;;;21.40;100.00
61573;BME280;47465;43.094;12.434;2023-06-14T11:43:16;98090.94;;;21.32;100.00
61573;BME280;47465;43.094;12.434;2023-06-14T11:45:42;98125.63;;;20.93;100.00
61573;BME280;47465;43.094;12.434;2023-06-14T11:48:10;98142.28;;;20.64;100.00
61573;BME280;47465;43.094;12.434;2023-06-14T11:50:37;98120.16;;;20.13;100.00
61573;BME280;47465;43.094;12.434;2023-06-14T11:53:04;98138.13;;;20.01;100.00
61573;BME280;47465;43.094;12.434;2023-06-14T11:55:36;98127.13;;;20.04;100.00
61573;BME280;47465;43.094;12.434;2023-06-14T11:58:02;98090.56;;;19.76;100.00
61573;BME280;47465;43.094;12.434;2023-06-14T12:00:29;98081.41;;;19.65;100.00
61573;BME280;47465;43.094;12.434;2023-06-14T12:02:55;98091.50;;;19.50;100.00
61573;BME280;47465;43.094;12.434;2023-06-14T12:05:24;98097.31;;;19.57;100.00
61573;BME280;47465;43.094;12.434;2023-06-14T12:07:50;98111.59;;;19.46;100.00
61573;BME280;47465;43.094;12.434;2023-06-14T12:10:18;98125.81;;;19.48;100.00
61573;BME280;47465;43.094;12.434;2023-06-14T12:12:45;98103.25;;;19.13;100.00
61573;BME280;47465;43.094;12.434;2023-06-14T12:15:11;98097.63;;;18.79;100.00
61573;BME280;47465;43.094;12.434;2023-06-14T12:17:38;98084.78;;;18.57;100.00
61573;BME280;47465;43.094;12.434;2023-06-14T12:20:08;98087.16;;;18.48;100.00
61573;BME280;47465;43.094;12.434;2023-06-14T12:22:53;98092.78;;;18.45;100.00
61573;BME280;47465;43.094;12.434;2023-06-14T12:25:29;98094.69;;;18.69;100.00
61573;BME280;47465;43.094;12.434;2023-06-14T12:27:57;98094.59;;;18.83;100.00
61573;BME280;47465;43.094;12.434;2023-06-14T12:30:24;98095.66;;;18.94;100.00
61573;BME280;47465;43.094;12.434;2023-06-14T12:32:50;98098.56;;;18.78;100.00
61573;BME280;47465;43.094;12.434;2023-06-14T12:35:17;98085.53;;;18.72;100.00
61573;BME280;47465;43.094;12.434;2023-06-14T12:37:44;98088.00;;;18.49;100.00
61573;BME280;47465;43.094;12.434;2023-06-14T12:40:13;98089.84;;;18.48;100.00
61573;BME280;47465;43.094;12.434;2023-06-14T12:42:40;98117.53;;;18.63;100.00
61573;BME280;47465;43.094;12.434;2023-06-14T12:45:08;98096.00;;;18.51;100.00
61573;BME280;47465;43.094;12.434;2023-06-14T12:47:34;98084.88;;;18.42;100.00
61573;BME280;47465;43.094;12.434;2023-06-14T12:50:00;98076.28;;;18.50;100.00
61573;BME280;47465;43.094;12.434;2023-06-14T12:52:26;98087.16;;;18.61;100.00
61573;BME280;47465;43.094;12.434;2023-06-14T12:54:53;98083.59;;;18.74;100.00
61573;BME280;47465;43.094;12.434;2023-06-14T12:57:20;98075.31;;;18.90;100.00